Time;durP1;ratioP1;P1;durP2;ratioP2;P2;SDS_P1;SDS_P2;PMS_P1;PMS_P2;Temp;Humidity;BMP_temperature;BMP_pressure;BME280_temperature;BME280_humidity;BME280_pressure;Samples;Min_cycle;Max_cycle;Signal;HPM_P1;HPM_P2
2022/03/20 00:00:53;;;;;;;27.80;9.90;;;10.00;74.00;;;;;;5045393;28;20474;-73
2022/03/20 00:03:20;;;;;;;22.05;10.65;;;10.00;74.00;;;;;;5048886;28;20029;-73
2022/03/20 00:05:47;;;;;;;26.63;12.02;;;9.90;73.80;;;;;;5049114;28;20048;-73
2022/03/20 00:08:33;;;;;;;21.25;11.25;;;9.90;73.70;;;;;;5052918;28;20025;-73
2022/03/20 00:11:01;;;;;;;26.83;9.90;;;9.90;74.00;;;;;;5064171;28;20037;-73
2022/03/20 00:13:28;;;;;;;24.75;10.77;;;9.90;73.50;;;;;;5049144;28;20033;-73
2022/03/20 00:15:56;;;;;;;23.70;11.70;;;9.90;73.70;;;;;;5062302;28;20017;-72
2022/03/20 00:18:26;;;;;;;25.15;10.90;;;9.90;73.40;;;;;;5048698;28;20029;-72
2022/03/20 00:20:53;;;;;;;;;;;9.90;73.70;;;;;;5048280;28;20035;-73
2022/03/20 00:23:22;;;;;;;23.15;11.10;;;9.90;73.80;;;;;;5048422;28;20028;-73
2022/03/20 00:25:48;;;;;;;24.13;10.27;;;9.90;73.80;;;;;;5048288;28;20033;-74
2022/03/20 00:28:15;;;;;;;21.52;10.65;;;9.90;73.60;;;;;;5048856;28;20043;-72
2022/03/20 00:30:43;;;;;;;25.63;11.73;;;9.90;73.50;;;;;;5048800;28;20115;-73
2022/03/20 00:33:09;;;;;;;28.40;11.77;;;9.90;73.00;;;;;;5048171;28;20382;-73
2022/03/20 00:35:36;;;;;;;23.92;11.73;;;9.90;74.10;;;;;;5048155;28;20029;-72
2022/03/20 00:38:02;;;;;;;25.92;11.55;;;9.90;73.20;;;;;;5048786;28;20033;-72
2022/03/20 00:40:27;;;;;;;23.40;11.43;;;9.90;73.20;;;;;;5048057;28;20477;-73
2022/03/20 00:42:53;;;;;;;28.60;12.50;;;9.90;73.60;;;;;;5048149;28;20028;-73
2022/03/20 00:45:19;;;;;;;22.92;11.45;;;9.90;73.80;;;;;;5048394;28;20349;-73
2022/03/20 00:47:45;;;;;;;24.17;11.27;;;9.90;73.40;;;;;;5048862;28;20103;-73
2022/03/20 00:50:11;;;;;;;29.70;11.77;;;9.90;74.60;;;;;;5040721;28;20072;-73
2022/03/20 00:52:37;;;;;;;22.63;10.35;;;9.90;73.60;;;;;;5042151;28;20100;-73
2022/03/20 00:55:03;;;;;;;25.13;11.95;;;9.90;73.20;;;;;;5048829;28;20033;-73
2022/03/20 01:00:04;;;;;;;27.92;13.10;;;9.90;73.40;;;;;;5014599;28;20093;-78
2022/03/20 01:02:39;;;;;;;27.35;11.25;;;9.90;73.30;;;;;;5023523;28;20113;-79
2022/03/20 01:05:05;;;;;;;27.02;11.52;;;9.90;73.30;;;;;;5021623;28;20030;-78
2022/03/20 01:07:31;;;;;;;28.48;11.75;;;9.90;72.90;;;;;;5022823;28;20030;-77
2022/03/20 01:09:56;;;;;;;22.83;11.85;;;9.90;73.00;;;;;;5020788;28;20375;-78
2022/03/20 01:12:22;;;;;;;26.88;11.93;;;9.90;73.30;;;;;;5023818;28;20033;-78
2022/03/20 01:14:47;;;;;;;26.05;11.55;;;9.90;73.50;;;;;;5026685;28;20021;-79
2022/03/20 01:17:13;;;;;;;26.95;12.25;;;9.90;73.50;;;;;;5020466;28;20361;-79
2022/03/20 01:19:39;;;;;;;26.35;11.98;;;9.90;73.50;;;;;;5023643;28;20454;-79
2022/03/20 01:22:04;;;;;;;25.67;12.85;;;9.90;73.20;;;;;;5018055;28;20506;-79
2022/03/20 01:24:30;;;;;;;26.25;12.43;;;9.90;73.50;;;;;;5023462;28;20029;-79
2022/03/20 01:26:56;;;;;;;22.88;10.60;;;9.90;73.70;;;;;;5025075;28;20033;-78
2022/03/20 01:29:22;;;;;;;30.50;12.77;;;9.90;73.60;;;;;;5019749;28;20475;-78
2022/03/20 01:31:49;;;;;;;28.52;13.35;;;9.90;73.50;;;;;;5018857;28;20026;-78
2022/03/20 01:34:14;;;;;;;25.33;12.43;;;9.90;73.20;;;;;;5023359;28;20022;-78
2022/03/20 01:36:42;;;;;;;23.17;11.93;;;9.90;73.80;;;;;;5023174;28;20018;-78
2022/03/20 01:39:08;;;;;;;31.80;11.95;;;9.90;73.40;;;;;;5022149;28;20026;-78
2022/03/20 01:41:33;;;;;;;24.17;12.48;;;9.90;74.50;;;;;;5020462;28;20104;-79
2022/03/20 01:44:01;;;;;;;33.92;13.25;;;9.90;73.70;;;;;;5027862;28;20529;-78
2022/03/20 01:46:27;;;;;;;22.88;11.13;;;9.90;73.80;;;;;;5019043;28;20066;-78
2022/03/20 01:48:53;;;;;;;25.00;12.10;;;9.90;73.90;;;;;;5023124;28;20026;-78
2022/03/20 01:52:10;;;;;;;24.38;11.65;;;9.90;73.80;;;;;;5022382;28;20296;-78
2022/03/20 01:54:11;;;;;;;24.50;11.48;;;9.90;74.00;;;;;;5022984;28;20033;-78
2022/03/20 01:56:40;;;;;;;23.30;11.30;;;9.90;73.90;;;;;;5026756;28;20111;-79
2022/03/20 01:59:06;;;;;;;29.13;13.03;;;9.90;74.00;;;;;;5027867;28;20128;-78
2022/03/20 02:01:32;;;;;;;24.52;10.93;;;9.90;73.80;;;;;;5022413;28;20463;-79
2022/03/20 02:03:58;;;;;;;23.88;12.95;;;9.90;73.90;;;;;;5034843;28;20033;-78
2022/03/20 02:06:26;;;;;;;25.48;11.70;;;9.80;73.80;;;;;;5018424;28;20026;-79
2022/03/20 02:08:54;;;;;;;22.95;11.60;;;9.90;73.20;;;;;;5019353;28;20037;-78
2022/03/20 02:11:22;;;;;;;20.98;10.80;;;9.90;74.00;;;;;;5022277;28;20056;-79
2022/03/20 02:13:48;;;;;;;25.92;12.40;;;9.90;73.60;;;;;;5024742;28;20041;-78
2022/03/20 02:16:14;;;;;;;29.30;12.82;;;9.90;73.80;;;;;;5019122;28;20026;-78
2022/03/20 02:18:39;;;;;;;24.55;11.70;;;9.80;73.30;;;;;;5022681;28;20037;-78
2022/03/20 02:21:05;;;;;;;27.90;13.88;;;9.80;73.50;;;;;;5018716;28;20056;-80
2022/03/20 02:23:34;;;;;;;29.98;13.40;;;9.90;73.50;;;;;;5027015;28;20378;-78
2022/03/20 02:26:07;;;;;;;27.60;12.73;;;9.80;73.80;;;;;;5033520;28;20030;-79
2022/03/20 02:28:33;;;;;;;27.42;13.20;;;9.80;74.10;;;;;;5022537;28;20025;-79
2022/03/20 02:30:58;;;;;;;38.10;12.57;;;9.80;74.00;;;;;;5022553;28;20033;-79
2022/03/20 02:33:27;;;;;;;32.28;12.95;;;9.80;74.00;;;;;;5018124;28;20422;-79
2022/03/20 02:35:53;;;;;;;31.70;13.90;;;9.90;73.60;;;;;;5021028;28;20025;-78
2022/03/20 02:38:20;;;;;;;29.02;14.02;;;9.90;73.40;;;;;;5016497;28;20497;-78
2022/03/20 02:40:46;;;;;;;30.55;12.80;;;9.90;73.20;;;;;;5019079;28;20030;-78
2022/03/20 02:43:12;;;;;;;24.35;12.05;;;9.90;73.70;;;;;;5031225;28;20127;-79
2022/03/20 02:45:38;;;;;;;28.13;13.18;;;9.90;74.10;;;;;;5018182;28;20414;-78
2022/03/20 02:48:04;;;;;;;25.15;12.35;;;9.80;74.20;;;;;;5018448;28;20040;-79
2022/03/20 02:50:36;;;;;;;30.20;13.73;;;9.90;73.90;;;;;;5021499;28;20041;-79
2022/03/20 02:53:11;;;;;;;32.38;14.25;;;9.90;74.20;;;;;;5020421;28;20024;-78
2022/03/20 02:55:39;;;;;;;33.72;13.77;;;9.90;73.90;;;;;;5020775;28;20033;-79
2022/03/20 02:58:10;;;;;;;29.98;14.23;;;9.80;74.00;;;;;;5018877;28;20065;-79
2022/03/20 03:00:38;;;;;;;28.80;14.23;;;9.80;73.80;;;;;;5018629;28;20053;-78
2022/03/20 03:03:06;;;;;;;32.92;14.77;;;9.90;73.70;;;;;;5022043;28;20117;-78
2022/03/20 03:05:32;;;;;;;39.03;14.45;;;9.80;74.20;;;;;;5021941;28;20064;-79
2022/03/20 03:11:01;;;;;;;29.17;12.70;;;9.80;73.70;;;;;;5020671;28;20099;-78
2022/03/20 03:13:31;;;;;;;27.77;12.85;;;9.80;74.10;;;;;;5027103;28;20029;-78
2022/03/20 03:16:01;;;;;;;31.55;14.52;;;9.90;74.20;;;;;;5021582;28;20053;-78
2022/03/20 03:18:27;;;;;;;30.40;13.82;;;9.80;73.70;;;;;;5019844;28;20124;-79
2022/03/20 03:20:53;;;;;;;34.05;14.75;;;9.80;74.40;;;;;;5019277;28;20178;-78
2022/03/20 03:23:20;;;;;;;31.33;14.15;;;9.80;74.40;;;;;;5016882;28;20109;-78
2022/03/20 03:25:47;;;;;;;27.10;14.07;;;9.80;74.20;;;;;;5023096;28;20033;-78
2022/03/20 03:28:12;;;;;;;30.33;14.23;;;9.80;74.70;;;;;;5030063;28;20034;-78
2022/03/20 03:30:40;;;;;;;29.15;13.25;;;9.80;74.70;;;;;;5016363;28;20034;-78
2022/03/20 03:33:06;;;;;;;28.30;14.05;;;9.90;74.70;;;;;;5015548;28;20101;-78
2022/03/20 03:35:41;;;;;;;28.13;14.02;;;9.80;74.10;;;;;;5012287;28;20113;-78
2022/03/20 03:38:16;;;;;;;32.88;14.30;;;9.80;73.90;;;;;;5013147;28;20129;-78
2022/03/20 03:40:44;;;;;;;29.25;12.88;;;9.80;73.60;;;;;;5012276;28;20499;-78
2022/03/20 03:43:11;;;;;;;27.35;13.70;;;9.80;74.50;;;;;;5029276;28;20020;-78
2022/03/20 03:45:40;;;;;;;29.30;14.07;;;9.80;74.00;;;;;;5020975;28;20040;-79
2022/03/20 03:48:07;;;;;;;33.15;14.43;;;9.90;74.40;;;;;;5018005;28;20083;-78
2022/03/20 03:50:34;;;;;;;28.85;14.05;;;9.80;74.70;;;;;;5022811;28;20037;-78
2022/03/20 03:52:59;;;;;;;34.15;13.88;;;9.80;74.30;;;;;;5017569;28;20395;-78
2022/03/20 03:55:25;;;;;;;32.05;14.10;;;9.80;74.30;;;;;;5021101;28;20109;-79
2022/03/20 03:57:52;;;;;;;28.17;14.00;;;9.90;74.40;;;;;;5017654;28;20031;-79
2022/03/20 04:00:19;;;;;;;27.73;13.63;;;9.80;74.40;;;;;;5024170;28;20026;-79
2022/03/20 04:02:46;;;;;;;30.90;14.40;;;9.80;74.30;;;;;;5021277;28;20025;-78
2022/03/20 04:05:11;;;;;;;31.08;13.48;;;9.80;74.70;;;;;;5021646;28;20056;-78
2022/03/20 04:07:37;;;;;;;32.10;14.82;;;9.80;74.70;;;;;;5025758;28;20065;-78
2022/03/20 04:10:07;;;;;;;29.73;13.70;;;9.80;74.30;;;;;;5031861;28;20037;-78
2022/03/20 04:12:37;;;;;;;30.35;14.15;;;9.80;74.70;;;;;;5025342;28;20129;-79
2022/03/20 04:15:04;;;;;;;31.48;14.48;;;9.80;75.40;;;;;;5024211;28;20889;-78
2022/03/20 04:17:30;;;;;;;30.08;14.02;;;9.80;75.20;;;;;;5020109;28;20035;-78
2022/03/20 04:19:57;;;;;;;34.85;14.18;;;9.80;74.70;;;;;;5019262;28;20029;-78
2022/03/20 04:22:23;;;;;;;28.15;12.30;;;9.80;74.90;;;;;;5020264;28;20364;-78
2022/03/20 04:24:50;;;;;;;28.27;13.52;;;9.80;74.70;;;;;;5019356;28;20030;-78
2022/03/20 04:27:15;;;;;;;29.73;14.35;;;9.80;74.70;;;;;;5021581;28;20077;-79
2022/03/20 04:29:41;;;;;;;31.75;14.70;;;9.80;74.60;;;;;;5028500;28;20532;-79
2022/03/20 04:32:08;;;;;;;26.75;12.95;;;9.80;74.10;;;;;;5021966;28;20041;-79
2022/03/20 04:34:35;;;;;;;37.80;14.07;;;9.80;74.00;;;;;;5024815;28;20475;-79
2022/03/20 04:37:04;;;;;;;32.65;14.18;;;9.80;74.30;;;;;;5023083;28;20490;-78
2022/03/20 04:39:30;;;;;;;27.50;13.25;;;9.80;74.70;;;;;;5021183;28;20459;-79
2022/03/20 04:41:56;;;;;;;27.48;12.00;;;9.80;74.60;;;;;;5022109;28;20108;-79
2022/03/20 04:44:22;;;;;;;35.80;14.32;;;9.80;74.30;;;;;;5030653;28;20033;-79
2022/03/20 04:46:48;;;;;;;36.55;15.32;;;9.80;74.20;;;;;;5029042;28;20485;-79
2022/03/20 05:00:10;;;;;;;34.08;14.40;;;9.80;74.70;;;;;;5027210;28;20120;-79
2022/03/20 05:02:36;;;;;;;25.92;14.13;;;9.80;75.00;;;;;;5019578;28;20049;-79
2022/03/20 05:05:02;;;;;;;28.60;13.20;;;9.80;74.90;;;;;;5020956;28;20062;-79
2022/03/20 05:07:28;;;;;;;28.15;13.88;;;9.80;74.50;;;;;;5023310;28;20022;-79
2022/03/20 05:15:21;;;;;;;31.85;13.45;;;9.80;74.80;;;;;;5028886;28;20071;-79
2022/03/20 05:17:47;;;;;;;29.02;14.75;;;9.90;74.90;;;;;;5034435;28;20030;-79
2022/03/20 05:20:13;;;;;;;30.98;13.80;;;9.80;75.00;;;;;;5023448;28;20096;-79
2022/03/20 05:22:39;;;;;;;29.75;14.18;;;9.80;74.90;;;;;;5019446;28;20026;-79
2022/03/20 05:25:12;;;;;;;25.90;12.90;;;9.80;75.20;;;;;;5021631;28;20021;-80
2022/03/20 05:27:38;;;;;;;29.60;13.15;;;9.80;74.90;;;;;;5023008;28;20026;-79
2022/03/20 05:30:07;;;;;;;29.55;14.75;;;9.90;75.10;;;;;;5027161;28;20041;-79
2022/03/20 05:32:35;;;;;;;28.30;12.93;;;9.80;75.00;;;;;;5022067;28;20030;-78
2022/03/20 05:35:06;;;;;;;31.40;13.57;;;9.80;74.90;;;;;;5020809;28;20033;-79
2022/03/20 05:37:32;;;;;;;30.38;12.98;;;9.90;75.20;;;;;;5022913;28;20479;-80
2022/03/20 05:39:58;;;;;;;31.25;14.25;;;9.90;74.80;;;;;;5038419;28;20033;-79
2022/03/20 05:42:24;;;;;;;33.85;14.68;;;9.80;75.10;;;;;;5021648;28;20491;-79
2022/03/20 05:44:50;;;;;;;29.90;13.77;;;9.80;75.20;;;;;;5026418;28;20022;-79
2022/03/20 05:47:16;;;;;;;31.20;14.27;;;9.90;75.20;;;;;;5020699;28;20475;-79
2022/03/20 05:49:41;;;;;;;39.83;15.38;;;9.90;75.10;;;;;;5023158;28;20030;-79
2022/03/20 05:52:08;;;;;;;31.25;14.02;;;9.90;75.30;;;;;;5020148;28;20497;-79
2022/03/20 05:54:34;;;;;;;32.35;14.18;;;9.80;75.60;;;;;;5020158;28;20041;-79
2022/03/20 05:59:44;;;;;;;28.50;14.00;;;9.90;75.60;;;;;;5025552;28;20044;-79
2022/03/20 06:02:10;;;;;;;34.78;13.75;;;9.90;75.10;;;;;;5017498;28;20055;-79
2022/03/20 06:04:38;;;;;;;32.30;15.07;;;9.90;75.30;;;;;;5028966;28;20044;-79
2022/03/20 06:07:04;;;;;;;34.97;15.48;;;9.90;75.50;;;;;;5019537;28;20475;-79
2022/03/20 06:09:30;;;;;;;27.40;14.60;;;9.90;75.30;;;;;;5022445;28;20057;-79
2022/03/20 06:11:56;;;;;;;27.70;13.07;;;9.90;74.80;;;;;;5018949;28;20032;-79
2022/03/20 06:14:22;;;;;;;27.33;13.57;;;9.90;75.30;;;;;;5022556;28;20984;-78
2022/03/20 06:16:48;;;;;;;29.50;13.68;;;9.90;75.20;;;;;;5019221;28;20298;-79
2022/03/20 06:19:15;;;;;;;35.00;13.95;;;9.90;75.40;;;;;;5021864;28;20482;-78
2022/03/20 06:21:45;;;;;;;24.50;13.82;;;10.00;75.30;;;;;;5018679;28;20487;-78
2022/03/20 06:24:11;;;;;;;36.15;14.70;;;9.90;74.90;;;;;;5027665;28;20029;-78
2022/03/20 06:26:37;;;;;;;24.70;13.38;;;9.90;75.00;;;;;;5022865;28;20084;-78
2022/03/20 06:29:07;;;;;;;34.90;14.68;;;9.90;74.70;;;;;;5021616;28;20029;-80
2022/03/20 06:31:33;;;;;;;30.60;14.63;;;9.90;74.80;;;;;;5033373;28;20024;-78
2022/03/20 06:33:59;;;;;;;27.55;14.15;;;10.00;74.30;;;;;;5018834;28;20034;-78
2022/03/20 06:36:25;;;;;;;35.17;15.55;;;10.00;74.10;;;;;;5022049;28;20025;-79
2022/03/20 06:38:51;;;;;;;35.08;15.20;;;10.00;74.10;;;;;;5018590;28;20028;-79
2022/03/20 06:41:20;;;;;;;31.70;14.57;;;10.10;74.00;;;;;;5022238;28;20025;-78
2022/03/20 06:43:46;;;;;;;32.92;14.65;;;10.10;73.70;;;;;;5018366;28;20026;-79
2022/03/20 06:46:11;;;;;;;30.48;14.20;;;10.10;73.70;;;;;;5029182;28;20036;-79
2022/03/20 06:48:37;;;;;;;28.83;14.50;;;10.10;73.40;;;;;;5019305;28;20076;-79
2022/03/20 06:51:06;;;;;;;31.65;15.45;;;10.20;73.70;;;;;;5026177;28;20104;-79
2022/03/20 06:53:33;;;;;;;35.95;15.43;;;10.20;73.50;;;;;;5021561;28;20033;-79
2022/03/20 06:55:59;;;;;;;32.85;15.02;;;10.20;73.40;;;;;;5020831;28;20030;-79
2022/03/20 06:58:27;;;;;;;33.10;15.30;;;10.20;73.40;;;;;;5020933;28;20479;-79
2022/03/20 07:00:53;;;;;;;35.75;15.40;;;10.30;73.30;;;;;;5055614;23;20105;-77
2022/03/20 07:03:20;;;;;;;31.48;14.73;;;10.30;74.10;;;;;;5055622;28;20395;-76
2022/03/20 07:05:46;;;;;;;33.97;15.20;;;10.30;74.20;;;;;;5046176;28;20025;-77
2022/03/20 07:08:12;;;;;;;26.50;14.20;;;10.40;73.30;;;;;;5048363;28;20058;-77
2022/03/20 07:10:37;;;;;;;31.30;14.80;;;10.40;73.50;;;;;;5049906;28;20090;-76
2022/03/20 07:15:51;;;;;;;34.05;15.43;;;10.40;73.50;;;;;;5049841;28;20163;-76
2022/03/20 07:18:19;;;;;;;33.50;16.50;;;10.40;73.80;;;;;;5068158;28;20024;-76
2022/03/20 07:20:47;;;;;;;35.33;15.57;;;10.50;74.40;;;;;;5069658;28;20035;-77
2022/03/20 07:23:13;;;;;;;33.45;15.43;;;10.50;74.20;;;;;;5050950;28;20032;-76
2022/03/20 07:31:10;;;;;;;37.80;15.43;;;10.50;74.60;;;;;;5049537;28;20110;-76
2022/03/20 07:33:36;;;;;;;32.78;15.98;;;10.50;73.80;;;;;;5049679;28;20470;-77
2022/03/20 07:36:04;;;;;;;30.45;15.82;;;10.60;74.30;;;;;;5049547;28;20024;-76
2022/03/20 07:38:30;;;;;;;32.47;15.38;;;10.60;74.30;;;;;;5049662;28;20025;-77
2022/03/20 07:40:55;;;;;;;35.22;15.15;;;10.60;74.40;;;;;;5049510;28;20029;-77
2022/03/20 07:43:21;;;;;;;32.47;15.95;;;10.60;74.40;;;;;;5047705;28;20370;-76
2022/03/20 07:45:47;;;;;;;36.00;16.13;;;10.60;75.00;;;;;;5049128;28;20016;-77
2022/03/20 07:48:13;;;;;;;30.48;15.30;;;10.70;74.60;;;;;;5047553;28;20170;-76
2022/03/20 07:50:40;;;;;;;35.83;16.40;;;10.70;74.80;;;;;;5050546;28;20119;-76
2022/03/20 07:53:06;;;;;;;27.67;14.68;;;10.70;74.80;;;;;;5049189;28;20467;-76
2022/03/20 07:55:32;;;;;;;30.23;15.93;;;10.70;74.80;;;;;;5049121;28;20063;-77
2022/03/20 07:57:58;;;;;;;36.85;16.50;;;10.70;75.10;;;;;;5048545;28;20068;-77
2022/03/20 08:00:24;;;;;;;34.33;16.25;;;10.80;75.20;;;;;;5048328;28;20116;-76
2022/03/20 08:02:53;;;;;;;25.92;11.32;;;10.70;76.00;;;;;;5048889;28;20552;-77
2022/03/20 08:05:20;;;;;;;36.97;16.90;;;10.80;75.80;;;;;;5031646;28;20512;-77
2022/03/20 08:07:46;;;;;;;33.03;16.15;;;10.80;75.80;;;;;;5053452;28;20031;-76
2022/03/20 08:10:13;;;;;;;35.63;16.60;;;10.80;75.80;;;;;;5053514;28;20102;-78
2022/03/20 08:12:40;;;;;;;35.42;16.98;;;10.80;76.30;;;;;;5052498;28;20035;-76
2022/03/20 08:15:06;;;;;;;25.95;13.45;;;10.80;75.80;;;;;;5053320;28;20108;-76
2022/03/20 08:17:42;;;;;;;31.70;16.58;;;10.80;76.30;;;;;;5053985;28;20044;-77
2022/03/20 08:20:09;;;;;;;36.65;16.23;;;10.80;76.30;;;;;;5063865;28;20104;-78
2022/03/20 08:22:34;;;;;;;31.40;16.60;;;10.80;76.50;;;;;;5058748;28;20021;-77
2022/03/20 08:25:00;;;;;;;36.47;16.75;;;10.80;76.80;;;;;;5017218;28;20439;-78
2022/03/20 08:27:25;;;;;;;36.67;16.42;;;10.80;76.40;;;;;;5032542;28;20076;-78
2022/03/20 08:29:52;;;;;;;35.17;16.15;;;10.80;76.80;;;;;;5033387;28;20109;-77
2022/03/20 08:32:17;;;;;;;35.90;15.57;;;10.80;77.40;;;;;;5043506;28;20025;-78
2022/03/20 08:34:43;;;;;;;37.78;17.80;;;10.80;76.70;;;;;;5072933;28;20389;-77
2022/03/20 08:37:08;;;;;;;32.67;17.35;;;10.80;76.20;;;;;;5073065;28;20454;-77
2022/03/20 08:39:34;;;;;;;34.47;17.70;;;10.80;76.30;;;;;;5072950;28;20067;-76
2022/03/20 08:42:00;;;;;;;37.42;18.80;;;10.80;77.10;;;;;;5071624;28;20561;-77
2022/03/20 08:44:26;;;;;;;36.58;16.92;;;10.80;76.50;;;;;;5072590;28;20013;-77
2022/03/20 08:46:55;;;;;;;42.53;19.77;;;10.80;76.60;;;;;;5071077;28;20031;-77
2022/03/20 08:49:21;;;;;;;31.58;18.05;;;10.80;76.50;;;;;;5065220;28;20035;-77
2022/03/20 08:51:46;;;;;;;41.50;18.90;;;10.80;76.60;;;;;;5051013;28;20108;-77
2022/03/20 08:54:12;;;;;;;35.92;17.88;;;10.80;77.00;;;;;;5052464;28;20044;-78
2022/03/20 08:56:38;;;;;;;33.75;16.83;;;10.80;77.20;;;;;;5052298;28;20061;-77
2022/03/20 08:59:06;;;;;;;40.05;18.20;;;10.90;76.90;;;;;;5052007;28;20025;-76
2022/03/20 09:01:32;;;;;;;35.83;17.40;;;10.80;77.00;;;;;;5051675;28;20474;-76
2022/03/20 09:03:57;;;;;;;41.17;18.73;;;10.90;76.60;;;;;;5052354;28;20090;-78
2022/03/20 09:06:23;;;;;;;33.83;17.80;;;10.90;77.30;;;;;;5051909;28;20052;-76
2022/03/20 09:08:50;;;;;;;34.05;17.25;;;10.90;77.50;;;;;;5052696;28;20037;-77
2022/03/20 09:11:17;;;;;;;37.97;17.23;;;10.90;77.50;;;;;;5052259;28;20040;-78
2022/03/20 09:13:42;;;;;;;38.00;18.40;;;10.90;77.10;;;;;;5052117;28;20551;-76
2022/03/20 09:19:03;;;;;;;33.72;17.27;;;10.90;77.90;;;;;;5065984;28;20077;-76
2022/03/20 09:21:32;;;;;;;35.97;18.42;;;10.90;78.40;;;;;;5071618;28;20036;-77
2022/03/20 09:23:58;;;;;;;36.55;15.88;;;11.00;78.30;;;;;;5072081;28;20410;-76
2022/03/20 09:26:24;;;;;;;42.65;18.38;;;11.00;77.80;;;;;;5064792;28;20051;-76
2022/03/20 09:28:50;;;;;;;38.40;18.33;;;11.00;77.90;;;;;;5059712;28;20044;-77
2022/03/20 09:31:20;;;;;;;42.20;18.75;;;11.00;77.40;;;;;;5071350;28;20028;-75
2022/03/20 09:33:46;;;;;;;38.70;18.05;;;11.00;77.60;;;;;;5070351;28;20060;-77
2022/03/20 09:36:12;;;;;;;27.10;10.95;;;11.00;78.00;;;;;;5072177;28;20246;-77
2022/03/20 09:38:38;;;;;;;33.50;17.67;;;11.00;77.50;;;;;;5071558;28;20082;-77
2022/03/20 09:41:08;;;;;;;36.95;15.48;;;11.00;77.20;;;;;;5071798;28;20021;-77
2022/03/20 09:43:38;;;;;;;37.30;18.75;;;11.10;78.10;;;;;;5071299;28;20016;-76
2022/03/20 09:46:04;;;;;;;38.33;17.55;;;11.10;76.80;;;;;;5071920;28;20048;-76
2022/03/20 09:48:30;;;;;;;37.08;17.20;;;11.10;76.70;;;;;;5060435;28;20032;-76
2022/03/20 09:51:00;;;;;;;34.78;19.05;;;11.10;77.10;;;;;;5051696;28;20064;-76
2022/03/20 09:53:26;;;;;;;34.10;17.52;;;11.20;77.50;;;;;;5051015;28;20478;-76
2022/03/20 09:55:55;;;;;;;39.05;18.77;;;11.20;77.70;;;;;;5051461;28;20513;-77
2022/03/20 09:58:26;;;;;;;33.63;16.95;;;11.20;78.00;;;;;;5050351;28;20301;-76
2022/03/20 10:00:53;;;;;;;40.67;17.30;;;11.20;78.10;;;;;;5041844;28;20024;-76
2022/03/20 10:03:23;;;;;;;33.40;16.85;;;11.20;79.40;;;;;;5061841;28;20024;-76
2022/03/20 10:06:23;;;;;;;39.22;16.80;;;11.20;78.40;;;;;;5051909;28;20134;-75
2022/03/20 10:09:01;;;;;;;35.77;14.67;;;11.30;77.90;;;;;;4989296;28;20039;-75
2022/03/20 10:11:27;;;;;;;33.72;17.20;;;11.30;77.30;;;;;;4988612;28;20050;-76
2022/03/20 10:14:15;;;;;;;36.03;15.90;;;11.30;77.70;;;;;;4989158;28;20023;-76
2022/03/20 10:16:48;;;;;;;29.35;14.35;;;11.40;77.90;;;;;;4989362;28;20034;-76
2022/03/20 10:19:22;;;;;;;38.92;16.85;;;11.40;77.00;;;;;;4987931;28;20126;-76
2022/03/20 10:21:53;;;;;;;26.60;14.15;;;11.40;77.90;;;;;;4988650;28;20038;-76
2022/03/20 10:24:20;;;;;;;;;;;11.40;76.30;;;;;;4989486;28;20129;-75
2022/03/20 10:26:52;;;;;;;26.90;13.70;;;11.50;77.10;;;;;;4988670;28;19906;-76
2022/03/20 10:29:18;;;;;;;29.70;13.70;;;11.50;76.00;;;;;;4987392;28;20029;-77
2022/03/20 10:31:51;;;;;;;31.25;15.45;;;11.60;76.40;;;;;;4988175;28;20046;-76
2022/03/20 10:34:18;;;;;;;34.35;16.58;;;11.60;77.40;;;;;;4987735;28;20230;-76
2022/03/20 10:36:46;;;;;;;27.45;14.48;;;11.60;77.90;;;;;;4993092;28;20091;-75
2022/03/20 10:39:19;;;;;;;36.45;18.17;;;11.60;78.40;;;;;;4999322;28;20061;-75
2022/03/20 10:41:52;;;;;;;13.13;6.45;;;11.60;78.20;;;;;;5007394;28;20029;-75
2022/03/20 10:44:24;;;;;;;32.55;16.05;;;11.70;78.20;;;;;;5035988;28;20090;-77
2022/03/20 10:46:58;;;;;;;30.65;16.35;;;11.70;77.60;;;;;;5070353;28;20039;-75
2022/03/20 10:49:25;;;;;;;27.70;14.05;;;11.70;78.10;;;;;;5061285;28;20029;-75
2022/03/20 10:52:06;;;;;;;34.80;16.25;;;11.70;77.80;;;;;;5049589;28;20025;-75
2022/03/20 10:54:58;;;;;;;30.20;14.68;;;11.70;77.80;;;;;;5049592;28;20577;-75
2022/03/20 10:57:34;;;;;;;32.75;16.85;;;11.70;77.70;;;;;;5045781;28;20406;-75
2022/03/20 11:00:10;;;;;;;33.60;14.93;;;11.80;78.40;;;;;;5049464;28;20088;-75
2022/03/20 11:02:39;;;;;;;24.90;12.27;;;11.80;78.60;;;;;;5049453;28;20040;-75
2022/03/20 11:05:06;;;;;;;15.40;6.15;;;11.80;78.00;;;;;;5049399;28;20051;-75
2022/03/20 11:07:32;;;;;;;35.22;17.08;;;11.90;77.30;;;;;;5070272;28;20094;-75
2022/03/20 11:09:57;;;;;;;28.55;11.93;;;12.00;75.70;;;;;;5067335;28;20509;-76
2022/03/20 11:12:32;;;;;;;39.03;17.83;;;12.00;76.90;;;;;;5064567;28;20025;-74
2022/03/20 11:15:00;;;;;;;38.17;16.45;;;12.00;76.90;;;;;;5033070;28;20116;-74
2022/03/20 11:17:42;;;;;;;31.92;14.75;;;12.10;77.90;;;;;;5029922;28;20032;-75
2022/03/20 11:20:11;;;;;;;26.30;13.00;;;12.00;78.60;;;;;;5064732;28;20432;-75
2022/03/20 11:22:42;;;;;;;32.95;17.17;;;12.10;77.60;;;;;;5069039;28;20576;-75
2022/03/20 11:25:08;;;;;;;31.67;15.48;;;12.10;77.60;;;;;;5069389;28;20107;-75
2022/03/20 11:27:40;;;;;;;32.10;14.43;;;12.10;78.20;;;;;;5051164;28;20025;-74
2022/03/20 11:30:07;;;;;;;26.75;14.10;;;12.10;78.10;;;;;;5051616;28;20481;-75
2022/03/20 11:32:34;;;;;;;32.67;12.85;;;12.10;78.70;;;;;;5069410;28;20025;-75
2022/03/20 11:35:03;;;;;;;27.83;14.23;;;12.20;79.00;;;;;;5061365;28;20037;-75
2022/03/20 11:37:43;;;;;;;32.03;16.02;;;12.20;77.80;;;;;;5036226;28;20033;-74
2022/03/20 11:40:20;;;;;;;29.85;15.00;;;12.20;77.70;;;;;;5011717;28;20033;-74
2022/03/20 11:42:48;;;;;;;25.95;12.98;;;12.30;76.40;;;;;;5029287;28;20048;-75
2022/03/20 11:45:16;;;;;;;29.40;14.63;;;12.20;77.80;;;;;;5020812;28;20362;-74
2022/03/20 11:47:44;;;;;;;31.92;14.85;;;12.30;77.50;;;;;;5061116;28;20048;-74
2022/03/20 11:50:19;;;;;;;19.90;8.07;;;12.30;77.60;;;;;;5053378;28;20037;-74
2022/03/20 11:52:58;;;;;;;32.20;13.43;;;12.30;77.40;;;;;;5050338;28;20156;-74
2022/03/20 11:55:34;;;;;;;35.72;13.85;;;12.40;76.80;;;;;;5049695;28;20036;-74
2022/03/20 11:58:11;;;;;;;35.47;16.77;;;12.40;77.40;;;;;;5050758;28;20044;-74
2022/03/20 12:00:43;;;;;;;33.85;15.10;;;12.30;77.80;;;;;;5051482;28;20461;-74
2022/03/20 12:03:12;;;;;;;37.95;16.35;;;12.30;77.80;;;;;;5050288;28;20041;-74
2022/03/20 12:06:05;;;;;;;34.03;15.80;;;12.30;77.80;;;;;;5066769;28;20485;-73
2022/03/20 12:08:52;;;;;;;33.50;15.60;;;12.30;77.60;;;;;;5069101;28;20021;-75
2022/03/20 12:11:21;;;;;;;30.17;11.82;;;12.40;77.30;;;;;;5068725;28;20040;-75
2022/03/20 12:14:16;;;;;;;26.52;11.75;;;12.40;76.90;;;;;;5062698;28;20024;-74
2022/03/20 12:16:42;;;;;;;30.27;12.65;;;12.40;76.70;;;;;;5048998;28;20029;-74
2022/03/20 12:19:11;;;;;;;33.13;15.48;;;12.40;76.80;;;;;;5051554;28;20029;-74
2022/03/20 12:21:52;;;;;;;29.02;12.55;;;12.40;76.70;;;;;;5054942;28;20028;-74
2022/03/20 12:24:37;;;;;;;35.05;16.40;;;12.40;77.30;;;;;;5069342;28;20024;-73
2022/03/20 12:27:24;;;;;;;27.13;13.25;;;12.40;76.90;;;;;;5068825;28;20162;-74
2022/03/20 12:30:02;;;;;;;31.73;13.00;;;12.40;77.20;;;;;;5069211;28;20059;-74
2022/03/20 12:32:51;;;;;;;31.77;15.15;;;12.40;77.50;;;;;;5068502;28;20024;-74
2022/03/20 12:35:19;;;;;;;29.40;13.07;;;12.40;77.90;;;;;;5053853;28;20175;-74
2022/03/20 12:37:45;;;;;;;30.42;13.43;;;12.50;78.90;;;;;;5048790;28;20049;-73
2022/03/20 12:40:23;;;;;;;21.48;8.77;;;12.40;78.80;;;;;;5049342;28;20036;-74
2022/03/20 12:43:13;;;;;;;32.80;13.32;;;12.40;77.90;;;;;;5048645;28;20057;-74
2022/03/20 12:45:44;;;;;;;30.42;12.45;;;12.50;78.60;;;;;;5048796;28;20049;-74
2022/03/20 12:48:15;;;;;;;26.73;12.48;;;12.50;77.60;;;;;;5048565;28;20067;-74
2022/03/20 12:50:46;;;;;;;32.53;12.63;;;12.50;77.40;;;;;;5046524;28;20481;-74
2022/03/20 12:53:15;;;;;;;;;;;12.50;77.90;;;;;;5050607;28;20013;-74
2022/03/20 12:55:49;;;;;;;30.38;14.02;;;12.50;77.90;;;;;;5058722;28;19912;-74
2022/03/20 12:58:17;;;;;;;31.75;13.75;;;12.50;77.60;;;;;;5063589;28;20044;-74
2022/03/20 13:00:43;;;;;;;25.70;11.88;;;12.50;78.60;;;;;;5072574;28;20422;-73
2022/03/20 13:03:12;;;;;;;32.72;12.57;;;12.50;77.80;;;;;;5071804;28;20115;-73
2022/03/20 13:05:57;;;;;;;29.00;11.43;;;12.50;77.50;;;;;;5101875;22;20076;-78
2022/03/20 13:08:34;;;;;;;33.45;12.68;;;12.50;78.60;;;;;;5093215;28;20247;-78
2022/03/20 13:14:08;;;;;;;28.92;12.00;;;12.50;77.00;;;;;;5082235;28;20035;-77
2022/03/20 13:16:34;;;;;;;30.75;13.27;;;12.50;77.00;;;;;;5092525;28;20366;-78
2022/03/20 13:19:01;;;;;;;29.83;12.98;;;12.50;77.30;;;;;;5092540;28;20502;-77